Time;durP1;ratioP1;P1;durP2;ratioP2;P2;SDS_P1;SDS_P2;PMS_P1;PMS_P2;Temp;Humidity;BMP_temperature;BMP_pressure;BME280_temperature;BME280_humidity;BME280_pressure;Samples;Min_cycle;Max_cycle;Signal;HPM_P1;HPM_P2
2021/05/04 00:02:13;;;;;;;4.60;3.90;;;7.70;96.90;;;;;;5037606;28;20210;-53
2021/05/04 00:04:38;;;;;;;4.97;4.33;;;7.60;96.60;;;;;;5042702;28;20667;-53
2021/05/04 00:07:04;;;;;;;4.10;3.80;;;7.70;96.70;;;;;;5050573;28;20181;-54
2021/05/04 00:09:30;;;;;;;4.43;4.03;;;7.50;96.60;;;;;;5047696;28;20224;-53
2021/05/04 00:11:56;;;;;;;6.87;4.40;;;7.60;96.70;;;;;;5051237;28;20857;-53
2021/05/04 00:14:22;;;;;;;4.67;4.27;;;7.70;96.90;;;;;;5050126;28;20945;-53
2021/05/04 00:16:47;;;;;;;4.82;4.22;;;7.50;96.60;;;;;;5050333;28;20194;-52
2021/05/04 00:19:13;;;;;;;4.50;4.10;;;7.80;96.90;;;;;;5050801;28;20188;-53
2021/05/04 00:21:39;;;;;;;4.23;3.83;;;7.70;96.80;;;;;;5050869;28;20181;-54
2021/05/04 00:24:05;;;;;;;5.17;4.20;;;7.60;96.70;;;;;;5050922;28;20563;-53
2021/05/04 00:26:31;;;;;;;4.90;4.40;;;7.70;96.70;;;;;;5047329;28;20278;-54
2021/05/04 00:28:57;;;;;;;4.30;4.00;;;7.80;96.80;;;;;;5049009;28;20688;-53
2021/05/04 00:31:22;;;;;;;5.13;4.63;;;7.70;96.60;;;;;;5050666;28;20204;-53
2021/05/04 00:33:48;;;;;;;4.73;4.33;;;7.70;96.80;;;;;;5050728;28;20243;-52
2021/05/04 00:36:14;;;;;;;4.33;3.73;;;7.70;96.70;;;;;;5050170;28;20185;-53
2021/05/04 00:38:39;;;;;;;4.90;4.40;;;7.90;96.70;;;;;;5047105;28;20199;-54
2021/05/04 00:41:05;;;;;;;4.60;4.10;;;7.90;96.60;;;;;;5047825;28;20652;-52
2021/05/04 00:43:32;;;;;;;4.20;3.87;;;7.80;97.00;;;;;;5049042;28;20474;-52
2021/05/04 00:45:58;;;;;;;4.97;4.30;;;7.80;96.80;;;;;;5049880;28;20472;-52
2021/05/04 00:48:24;;;;;;;4.50;4.10;;;8.10;97.00;;;;;;5046517;28;20199;-53
2021/05/04 00:50:50;;;;;;;4.45;4.05;;;7.80;96.60;;;;;;5046205;28;20531;-54
2021/05/04 00:53:16;;;;;;;4.30;3.90;;;8.00;97.00;;;;;;5049961;28;20652;-53
2021/05/04 00:55:42;;;;;;;4.90;4.50;;;8.00;97.00;;;;;;5042969;28;20182;-53
2021/05/04 00:58:09;;;;;;;5.00;4.50;;;7.80;97.00;;;;;;5046650;28;20332;-54
2021/05/04 01:00:35;;;;;;;4.18;3.88;;;7.90;96.90;;;;;;5049838;28;21317;-53
2021/05/04 01:03:03;;;;;;;4.65;4.25;;;7.80;96.90;;;;;;5051664;28;20213;-53
2021/05/04 01:05:29;;;;;;;4.40;3.92;;;7.80;97.10;;;;;;5049705;28;20220;-54
2021/05/04 01:07:54;;;;;;;3.92;3.63;;;8.00;97.10;;;;;;5047021;28;20450;-52
2021/05/04 01:10:20;;;;;;;4.23;3.93;;;8.00;96.90;;;;;;5048297;28;20728;-53
2021/05/04 01:12:47;;;;;;;5.05;4.65;;;7.80;96.70;;;;;;5041075;28;20206;-54
2021/05/04 01:15:13;;;;;;;4.75;4.35;;;7.80;96.80;;;;;;5039878;28;20720;-53
2021/05/04 01:17:38;;;;;;;3.70;3.40;;;8.00;97.20;;;;;;5049437;28;20411;-53
2021/05/04 01:20:06;;;;;;;5.17;3.83;;;7.90;97.20;;;;;;5049699;28;20493;-54
2021/05/04 01:22:32;;;;;;;4.38;3.92;;;7.80;97.20;;;;;;5048598;28;20640;-54
2021/05/04 01:24:58;;;;;;;4.15;3.85;;;7.80;97.30;;;;;;5049868;28;20200;-52
2021/05/04 01:27:23;;;;;;;4.33;3.93;;;8.10;97.40;;;;;;5051364;28;20176;-52
2021/05/04 01:29:49;;;;;;;4.27;3.90;;;8.10;97.30;;;;;;5049677;28;20841;-52
2021/05/04 01:32:15;;;;;;;4.40;3.80;;;8.00;97.10;;;;;;5050387;28;20220;-54
2021/05/04 01:34:41;;;;;;;5.00;4.50;;;7.90;97.20;;;;;;5049048;28;20184;-53
2021/05/04 01:37:06;;;;;;;4.70;4.00;;;7.80;97.40;;;;;;5049786;28;20226;-54
2021/05/04 01:39:43;;;;;;;4.30;4.00;;;7.80;97.50;;;;;;5048848;28;20198;-52
2021/05/04 01:42:10;;;;;;;6.32;3.80;;;7.50;97.70;;;;;;5049191;28;20317;-54
2021/05/04 01:44:36;;;;;;;4.13;3.78;;;7.40;98.20;;;;;;5049171;28;20181;-53
2021/05/04 01:47:02;;;;;;;4.85;4.35;;;7.80;98.50;;;;;;5050401;28;20231;-52
2021/05/04 01:49:28;;;;;;;4.82;4.22;;;7.60;98.20;;;;;;5049456;28;20681;-52
2021/05/04 01:51:55;;;;;;;4.40;3.90;;;7.70;98.50;;;;;;5048481;28;20190;-54
2021/05/04 01:54:23;;;;;;;4.30;4.00;;;7.60;98.80;;;;;;5042986;28;20182;-54
2021/05/04 01:56:50;;;;;;;5.07;4.13;;;7.70;98.90;;;;;;5051217;28;20203;-53
2021/05/04 01:59:16;;;;;;;4.57;4.18;;;7.40;98.80;;;;;;5049823;28;20222;-53
2021/05/04 02:01:41;;;;;;;4.33;4.00;;;7.60;98.80;;;;;;5047048;28;20206;-54
2021/05/04 02:04:07;;;;;;;4.23;3.93;;;7.80;99.00;;;;;;5050233;28;20655;-52
2021/05/04 02:06:32;;;;;;;4.27;3.93;;;7.70;98.70;;;;;;5046010;28;20668;-52
2021/05/04 02:08:58;;;;;;;4.40;4.00;;;7.60;98.80;;;;;;5048826;28;20190;-53
2021/05/04 02:11:24;;;;;;;6.63;4.43;;;7.40;98.80;;;;;;5047443;28;20192;-53
2021/05/04 02:13:49;;;;;;;5.07;4.40;;;7.70;98.90;;;;;;5046581;28;20873;-54
2021/05/04 02:16:15;;;;;;;4.00;3.63;;;7.70;98.70;;;;;;5048739;28;20196;-52
2021/05/04 02:18:41;;;;;;;4.18;3.80;;;7.80;98.50;;;;;;5048354;28;20203;-53
2021/05/04 02:21:06;;;;;;;4.10;3.77;;;7.80;98.60;;;;;;5050135;28;20193;-52
2021/05/04 02:23:32;;;;;;;3.73;3.47;;;7.90;98.40;;;;;;5049374;28;20225;-54
2021/05/04 02:25:58;;;;;;;4.20;3.90;;;7.60;96.50;;;;;;5048117;28;20580;-53
2021/05/04 02:28:24;;;;;;;4.47;3.53;;;8.10;96.60;;;;;;5042897;28;20213;-53
2021/05/04 02:30:50;;;;;;;3.70;3.40;;;8.10;96.80;;;;;;5048145;28;20239;-54
2021/05/04 02:33:15;;;;;;;4.80;4.40;;;8.10;96.70;;;;;;5044919;28;20685;-53
2021/05/04 02:35:41;;;;;;;4.00;3.70;;;8.00;96.70;;;;;;5044439;28;20190;-53
2021/05/04 02:38:06;;;;;;;4.70;3.50;;;8.10;97.10;;;;;;5047959;28;20178;-52
2021/05/04 02:40:32;;;;;;;4.60;3.60;;;8.10;97.00;;;;;;5047983;28;20558;-53
2021/05/04 02:42:58;;;;;;;4.10;3.70;;;8.20;97.20;;;;;;5047547;28;20314;-53
2021/05/04 02:45:23;;;;;;;4.20;3.90;;;8.10;96.50;;;;;;5041933;28;20531;-54
2021/05/04 02:47:49;;;;;;;4.33;4.03;;;8.20;95.60;;;;;;5047377;28;20187;-52
2021/05/04 02:50:15;;;;;;;4.43;3.70;;;8.40;95.20;;;;;;5040699;28;20181;-53
2021/05/04 02:52:41;;;;;;;3.90;3.60;;;8.50;94.40;;;;;;5047591;28;20213;-52
2021/05/04 02:55:07;;;;;;;3.67;3.37;;;8.70;93.90;;;;;;5047462;28;20641;-54
2021/05/04 02:57:32;;;;;;;4.63;4.22;;;8.50;94.70;;;;;;5047971;28;20436;-53
2021/05/04 02:59:58;;;;;;;4.20;3.90;;;8.50;95.30;;;;;;5047325;28;20242;-52
2021/05/04 03:02:27;;;;;;;3.97;3.67;;;8.70;94.90;;;;;;5047598;28;20213;-52
2021/05/04 03:04:52;;;;;;;4.65;3.85;;;8.50;94.90;;;;;;5047449;28;20181;-54
2021/05/04 03:07:18;;;;;;;3.83;3.53;;;8.50;94.40;;;;;;5049601;28;20177;-54
2021/05/04 03:09:44;;;;;;;4.30;3.90;;;8.60;93.20;;;;;;5044144;28;20171;-54
2021/05/04 03:12:09;;;;;;;4.20;3.87;;;8.90;93.40;;;;;;5042147;28;20181;-53
2021/05/04 03:14:35;;;;;;;3.93;3.63;;;8.90;93.20;;;;;;5045027;28;20181;-54
2021/05/04 03:17:01;;;;;;;6.20;3.97;;;9.00;92.60;;;;;;5044519;28;20193;-53
2021/05/04 03:19:26;;;;;;;4.67;4.27;;;9.00;92.60;;;;;;5049757;28;20217;-53
2021/05/04 03:21:52;;;;;;;3.23;3.03;;;8.80;93.00;;;;;;5048483;28;20676;-54
2021/05/04 03:24:18;;;;;;;4.00;3.70;;;9.20;93.00;;;;;;5046160;28;20208;-54
2021/05/04 03:26:45;;;;;;;4.00;3.70;;;9.00;93.20;;;;;;5047134;28;20189;-54
2021/05/04 03:29:11;;;;;;;3.28;3.08;;;9.20;93.20;;;;;;5047452;28;20504;-53
2021/05/04 03:31:37;;;;;;;6.57;5.70;;;9.10;93.20;;;;;;5046910;28;20193;-53
2021/05/04 03:34:03;;;;;;;4.10;3.80;;;9.00;93.40;;;;;;5052367;28;20983;-53
2021/05/04 03:36:28;;;;;;;4.77;3.53;;;8.90;93.40;;;;;;5047495;28;20272;-53
2021/05/04 03:38:54;;;;;;;3.60;3.30;;;9.20;93.50;;;;;;5045445;28;20194;-53
2021/05/04 03:41:20;;;;;;;3.67;3.37;;;9.10;93.50;;;;;;5037791;28;20216;-54
2021/05/04 03:43:45;;;;;;;4.13;3.73;;;9.30;93.20;;;;;;5047197;28;20541;-54
2021/05/04 03:46:11;;;;;;;4.23;3.87;;;9.30;93.30;;;;;;5047307;28;20182;-53
2021/05/04 03:48:36;;;;;;;3.73;3.43;;;9.20;93.20;;;;;;5049005;28;20192;-54
2021/05/04 03:51:02;;;;;;;3.70;3.40;;;9.30;92.70;;;;;;5047675;28;20170;-52
2021/05/04 03:53:30;;;;;;;3.57;3.27;;;9.30;93.00;;;;;;5046633;28;20672;-52
2021/05/04 03:55:56;;;;;;;3.35;3.05;;;9.20;92.60;;;;;;5048407;28;20847;-52
2021/05/04 03:58:21;;;;;;;4.30;3.40;;;9.10;92.40;;;;;;5045742;28;20192;-51
2021/05/04 04:00:47;;;;;;;3.70;3.40;;;9.40;92.50;;;;;;5047194;28;20193;-51
2021/05/04 04:03:13;;;;;;;3.37;3.07;;;9.20;91.90;;;;;;5045562;28;20706;-51
2021/05/04 04:05:38;;;;;;;3.70;3.07;;;9.60;92.20;;;;;;5047943;28;20284;-52
2021/05/04 04:08:06;;;;;;;3.73;3.33;;;9.20;92.00;;;;;;5046722;28;20452;-52
2021/05/04 04:10:32;;;;;;;4.05;3.40;;;9.60;91.80;;;;;;5047444;28;20194;-51
2021/05/04 04:12:57;;;;;;;3.23;2.93;;;9.50;91.50;;;;;;5045511;28;20221;-51
2021/05/04 04:15:23;;;;;;;3.55;3.20;;;9.70;91.30;;;;;;5050970;28;20181;-51
2021/05/04 04:17:49;;;;;;;6.00;4.00;;;9.70;91.30;;;;;;5051775;28;20189;-51
2021/05/04 04:20:15;;;;;;;4.33;3.93;;;9.70;91.60;;;;;;5046754;28;20186;-51
2021/05/04 04:22:40;;;;;;;4.50;3.40;;;9.60;91.10;;;;;;5046162;28;20283;-50
2021/05/04 04:25:08;;;;;;;4.13;3.73;;;10.00;90.90;;;;;;5059829;28;20189;-49
2021/05/04 04:27:34;;;;;;;3.58;2.60;;;9.70;91.00;;;;;;5046395;28;20178;-49
2021/05/04 04:30:00;;;;;;;4.80;3.17;;;9.90;90.60;;;;;;5050274;28;20184;-50
2021/05/04 04:32:26;;;;;;;5.60;3.05;;;9.50;91.00;;;;;;5051768;28;20243;-52
2021/05/04 04:34:53;;;;;;;3.33;3.03;;;9.50;90.70;;;;;;5050062;28;20177;-51
2021/05/04 04:37:19;;;;;;;3.75;3.45;;;9.90;90.40;;;;;;5041311;28;20196;-51
2021/05/04 04:39:45;;;;;;;4.55;4.15;;;10.00;90.20;;;;;;5047688;28;20173;-49
2021/05/04 04:42:11;;;;;;;5.20;3.07;;;9.30;90.30;;;;;;5040982;28;20236;-52
2021/05/04 04:44:36;;;;;;;3.23;2.90;;;9.90;90.60;;;;;;5041719;28;20467;-52
2021/05/04 04:47:05;;;;;;;3.60;3.30;;;9.90;90.20;;;;;;5046058;28;20440;-52
2021/05/04 04:49:31;;;;;;;4.22;3.45;;;9.90;90.20;;;;;;5044771;28;20208;-51
2021/05/04 04:51:56;;;;;;;4.10;2.90;;;10.00;88.10;;;;;;5044565;28;20657;-51
2021/05/04 04:54:22;;;;;;;3.70;3.33;;;9.80;89.70;;;;;;5046706;28;20978;-51
2021/05/04 04:56:48;;;;;;;5.90;3.60;;;10.10;88.70;;;;;;5043605;28;20224;-50
2021/05/04 04:59:13;;;;;;;3.87;3.33;;;10.10;88.80;;;;;;5065066;28;20209;-50
2021/05/04 05:01:39;;;;;;;3.80;3.40;;;10.40;88.70;;;;;;5046698;28;20551;-50
2021/05/04 05:04:05;;;;;;;5.03;3.13;;;10.30;88.40;;;;;;5049383;28;20568;-50
2021/05/04 05:06:31;;;;;;;4.18;3.30;;;10.50;87.50;;;;;;5044572;28;20182;-50
2021/05/04 05:08:57;;;;;;;4.38;3.20;;;10.40;87.50;;;;;;5042229;28;20196;-51
2021/05/04 05:11:23;;;;;;;2.80;2.60;;;10.30;85.80;;;;;;5042758;28;20207;-50
2021/05/04 05:13:49;;;;;;;3.30;3.00;;;10.50;85.40;;;;;;5055569;28;20299;-51
2021/05/04 05:16:17;;;;;;;3.50;3.20;;;10.50;85.30;;;;;;5038928;28;20185;-50
2021/05/04 05:18:42;;;;;;;3.10;2.78;;;10.70;84.90;;;;;;5044505;28;20181;-51
2021/05/04 05:21:10;;;;;;;4.27;3.40;;;10.60;84.50;;;;;;5046177;28;20555;-50
2021/05/04 05:23:36;;;;;;;3.17;2.88;;;10.70;84.30;;;;;;5041452;28;20626;-50
2021/05/04 05:26:03;;;;;;;3.30;3.00;;;10.90;84.40;;;;;;5048494;28;20182;-50
2021/05/04 05:28:29;;;;;;;2.95;2.75;;;10.90;84.10;;;;;;5048983;28;20444;-51
2021/05/04 05:30:55;;;;;;;2.83;2.63;;;11.10;84.30;;;;;;5045478;28;20319;-50
2021/05/04 05:33:22;;;;;;;3.00;2.70;;;10.80;83.60;;;;;;5040597;28;20465;-52
2021/05/04 05:35:48;;;;;;;3.20;2.90;;;11.10;83.60;;;;;;5044335;28;20456;-49
2021/05/04 05:38:14;;;;;;;3.33;3.03;;;11.10;83.80;;;;;;5047390;28;20182;-49
2021/05/04 05:40:39;;;;;;;3.60;3.30;;;10.90;83.00;;;;;;5045316;28;20186;-50
2021/05/04 05:43:05;;;;;;;3.97;3.20;;;11.20;83.20;;;;;;5047912;28;20224;-49
2021/05/04 05:45:31;;;;;;;2.88;2.67;;;11.00;82.80;;;;;;5046136;28;20462;-49
2021/05/04 05:47:57;;;;;;;3.03;2.63;;;11.30;82.60;;;;;;5044631;28;20183;-49
2021/05/04 05:50:23;;;;;;;3.90;2.87;;;11.40;82.20;;;;;;5044666;28;20528;-50
2021/05/04 05:52:49;;;;;;;4.65;2.90;;;11.50;81.60;;;;;;5039162;28;20514;-49
2021/05/04 05:55:15;;;;;;;3.87;2.97;;;11.60;81.20;;;;;;5045092;28;20659;-52
2021/05/04 05:57:41;;;;;;;3.83;3.33;;;11.60;80.40;;;;;;5045788;28;20437;-50
2021/05/04 06:00:08;;;;;;;2.97;2.63;;;11.80;80.10;;;;;;5044563;28;20430;-51
2021/05/04 06:02:33;;;;;;;2.90;2.70;;;11.80;80.00;;;;;;5044192;28;20282;-52
2021/05/04 06:04:59;;;;;;;3.20;2.47;;;12.10;79.50;;;;;;5046330;28;20181;-52
2021/05/04 06:07:25;;;;;;;3.03;2.80;;;11.80;78.90;;;;;;5043100;28;20182;-52
2021/05/04 06:09:51;;;;;;;3.63;2.60;;;12.10;78.90;;;;;;5045178;28;20264;-52
2021/05/04 06:12:16;;;;;;;3.50;2.73;;;12.00;77.70;;;;;;5041969;28;20469;-52
2021/05/04 06:14:42;;;;;;;2.87;2.67;;;12.50;77.80;;;;;;5045653;28;20197;-53
2021/05/04 06:17:08;;;;;;;2.70;2.50;;;12.40;77.60;;;;;;5043410;28;20201;-51
2021/05/04 06:19:33;;;;;;;3.20;2.90;;;12.60;77.10;;;;;;5045878;28;20191;-50
2021/05/04 06:21:59;;;;;;;3.40;3.10;;;12.60;76.20;;;;;;5042850;28;20664;-51
2021/05/04 06:24:24;;;;;;;2.53;2.33;;;12.70;75.30;;;;;;5042185;28;20217;-51
2021/05/04 06:26:50;;;;;;;2.67;2.47;;;12.90;75.40;;;;;;5047249;28;20542;-53
2021/05/04 06:29:16;;;;;;;2.90;2.70;;;13.00;75.30;;;;;;5046729;28;20182;-52
2021/05/04 06:31:42;;;;;;;2.90;2.60;;;12.80;73.80;;;;;;5046900;28;20242;-50
2021/05/04 06:34:11;;;;;;;2.50;2.30;;;13.20;73.60;;;;;;5050615;28;20212;-51
2021/05/04 06:36:36;;;;;;;3.00;2.80;;;13.30;73.10;;;;;;5043493;28;20176;-53
2021/05/04 06:39:02;;;;;;;3.10;2.80;;;13.50;72.50;;;;;;5047708;28;20247;-52
2021/05/04 06:41:34;;;;;;;3.03;2.70;;;13.40;71.90;;;;;;5045957;28;20188;-50
2021/05/04 06:44:01;;;;;;;2.53;2.33;;;13.70;71.10;;;;;;5046580;28;20247;-51
2021/05/04 06:46:29;;;;;;;2.15;2.05;;;13.70;70.70;;;;;;5041107;28;20186;-50
2021/05/04 06:48:55;;;;;;;2.72;2.53;;;13.80;69.70;;;;;;5047253;28;20533;-51
2021/05/04 06:51:21;;;;;;;2.50;2.30;;;13.80;69.20;;;;;;5043953;28;20180;-51
2021/05/04 06:53:46;;;;;;;2.50;2.10;;;13.90;68.90;;;;;;5045002;28;20216;-52
2021/05/04 06:56:12;;;;;;;3.10;2.90;;;13.90;68.20;;;;;;5044531;28;20185;-52
2021/05/04 06:58:37;;;;;;;4.73;2.40;;;13.80;67.10;;;;;;5046956;28;20189;-54
2021/05/04 07:01:03;;;;;;;2.63;2.43;;;14.10;67.80;;;;;;5047977;28;20217;-55
2021/05/04 07:03:28;;;;;;;2.30;2.10;;;14.10;67.70;;;;;;5047244;28;20289;-54
2021/05/04 07:05:54;;;;;;;2.67;2.47;;;14.30;67.30;;;;;;5045988;28;20765;-54
2021/05/04 07:08:20;;;;;;;2.37;2.17;;;14.30;67.00;;;;;;5048341;28;20187;-54
2021/05/04 07:10:45;;;;;;;2.30;2.10;;;14.60;66.50;;;;;;5042218;28;20175;-51
2021/05/04 07:13:18;;;;;;;2.30;2.20;;;14.70;66.20;;;;;;5042803;28;20633;-50
2021/05/04 07:15:45;;;;;;;2.70;2.50;;;14.90;65.10;;;;;;5046068;28;20181;-53
2021/05/04 07:18:11;;;;;;;3.80;2.53;;;15.20;64.80;;;;;;5043157;28;20179;-52
2021/05/04 07:20:38;;;;;;;4.50;2.70;;;15.50;63.60;;;;;;5045598;28;20681;-53
2021/05/04 07:23:08;;;;;;;2.40;2.20;;;15.60;62.30;;;;;;5044847;28;20221;-53
2021/05/04 07:25:34;;;;;;;2.60;2.40;;;15.70;61.20;;;;;;5045567;28;20177;-56
2021/05/04 07:28:00;;;;;;;2.77;2.47;;;16.00;61.10;;;;;;5046432;28;20284;-53
2021/05/04 07:30:26;;;;;;;4.45;2.28;;;16.60;60.50;;;;;;5047554;28;20182;-55
2021/05/04 07:32:51;;;;;;;2.00;1.90;;;17.00;58.70;;;;;;5046903;28;20284;-53
2021/05/04 07:35:17;;;;;;;3.20;2.17;;;17.10;58.20;;;;;;5039245;28;20190;-54
2021/05/04 07:37:43;;;;;;;2.00;1.80;;;17.30;57.60;;;;;;5044403;28;20181;-54
2021/05/04 07:40:10;;;;;;;3.10;2.50;;;17.50;56.30;;;;;;5043999;28;20181;-53
2021/05/04 07:42:36;;;;;;;1.80;1.70;;;17.90;56.20;;;;;;5046231;28;20719;-51
2021/05/04 07:45:02;;;;;;;3.63;2.10;;;18.60;54.40;;;;;;5043082;28;20181;-55
2021/05/04 07:47:28;;;;;;;2.25;1.85;;;18.80;53.00;;;;;;5046431;28;20185;-54
2021/05/04 07:49:55;;;;;;;4.00;2.60;;;19.20;52.70;;;;;;5043430;28;20181;-52
2021/05/04 07:52:22;;;;;;;3.05;2.40;;;19.50;51.50;;;;;;5039526;28;20296;-53
2021/05/04 07:54:47;;;;;;;2.70;2.10;;;19.50;51.20;;;;;;5045273;28;20208;-53
2021/05/04 07:57:13;;;;;;;2.20;1.97;;;19.50;50.40;;;;;;5045412;28;20652;-54
2021/05/04 07:59:38;;;;;;;2.40;2.20;;;19.10;50.50;;;;;;5045355;28;20196;-54
2021/05/04 08:02:04;;;;;;;3.70;2.10;;;18.70;51.30;;;;;;5045500;28;20243;-51
2021/05/04 08:04:30;;;;;;;2.50;2.20;;;18.50;51.30;;;;;;5045350;28;21128;-51
2021/05/04 08:06:59;;;;;;;3.40;3.10;;;18.40;51.70;;;;;;5042491;28;20189;-52
2021/05/04 08:09:25;;;;;;;2.30;2.10;;;18.30;51.80;;;;;;5037790;28;20629;-52
2021/05/04 08:11:51;;;;;;;1.80;1.70;;;18.40;52.20;;;;;;5045932;28;20186;-51
2021/05/04 08:14:18;;;;;;;3.13;2.40;;;18.10;51.80;;;;;;5042822;28;20209;-53
2021/05/04 08:16:43;;;;;;;2.42;2.00;;;18.00;51.80;;;;;;5042679;28;20193;-50
2021/05/04 08:19:09;;;;;;;3.03;1.80;;;17.40;51.90;;;;;;5036250;28;20189;-50
2021/05/04 08:21:36;;;;;;;2.40;2.20;;;17.50;52.60;;;;;;5046050;28;20261;-53
2021/05/04 08:24:02;;;;;;;3.38;2.10;;;17.90;52.50;;;;;;5043908;28;20236;-53
2021/05/04 08:26:28;;;;;;;2.85;2.10;;;17.80;52.20;;;;;;5042467;28;20181;-52
2021/05/04 08:28:57;;;;;;;3.10;2.00;;;17.90;52.20;;;;;;5049648;28;20203;-53
2021/05/04 08:31:24;;;;;;;6.65;2.25;;;18.20;52.20;;;;;;5045777;28;20451;-49
2021/05/04 08:33:50;;;;;;;2.13;1.90;;;18.40;51.60;;;;;;5048969;28;20575;-50
2021/05/04 08:36:15;;;;;;;2.37;2.17;;;18.40;51.60;;;;;;5048513;28;20191;-53
2021/05/04 08:38:41;;;;;;;2.00;1.90;;;18.70;50.80;;;;;;5048982;28;20962;-53
2021/05/04 08:41:08;;;;;;;2.60;2.03;;;18.90;50.30;;;;;;5046962;28;20451;-51
2021/05/04 08:43:34;;;;;;;2.22;2.03;;;19.10;49.90;;;;;;5049632;28;20271;-50
2021/05/04 08:46:01;;;;;;;1.92;1.83;;;19.40;49.80;;;;;;5049705;28;20188;-55
2021/05/04 08:48:28;;;;;;;2.10;2.00;;;19.50;49.00;;;;;;5048176;28;20207;-52
2021/05/04 08:50:56;;;;;;;2.67;2.30;;;19.90;49.20;;;;;;5041432;28;20190;-53
2021/05/04 08:53:22;;;;;;;3.05;2.00;;;20.40;48.40;;;;;;5048119;28;20222;-51
2021/05/04 08:55:48;;;;;;;2.20;1.97;;;20.90;48.00;;;;;;5047369;28;20680;-51
2021/05/04 08:58:14;;;;;;;3.05;2.05;;;21.50;46.80;;;;;;5048522;28;20892;-52
2021/05/04 09:00:40;;;;;;;2.40;2.20;;;21.40;46.90;;;;;;5046005;28;20374;-55
2021/05/04 09:03:56;;;;;;;2.30;2.10;;;21.20;46.60;;;;;;5049133;28;20219;-54
2021/05/04 09:09:13;;;;;;;2.15;1.92;;;21.30;46.40;;;;;;5047303;28;20178;-54
2021/05/04 09:16:49;;;;;;;2.30;1.70;;;21.20;45.40;;;;;;5047637;28;20187;-53
2021/05/04 09:21:47;;;;;;;4.70;2.20;;;20.00;47.40;;;;;;5046105;28;20295;-52
2021/05/04 09:24:17;;;;;;;4.70;2.50;;;19.50;48.20;;;;;;5045959;28;20293;-51
2021/05/04 09:26:43;;;;;;;4.05;2.30;;;19.50;48.70;;;;;;5040668;28;20212;-51
2021/05/04 09:29:10;;;;;;;2.00;1.90;;;19.20;48.60;;;;;;5039271;28;20194;-55
2021/05/04 09:31:38;;;;;;;2.38;2.17;;;19.20;48.60;;;;;;5045706;28;20194;-52
2021/05/04 09:34:15;;;;;;;2.20;2.00;;;19.00;48.90;;;;;;5046805;28;20561;-53
2021/05/04 09:36:50;;;;;;;2.47;2.00;;;19.20;48.80;;;;;;5048351;28;20215;-50
2021/05/04 09:39:32;;;;;;;4.20;3.80;;;19.10;48.90;;;;;;5059179;28;20182;-52
2021/05/04 09:42:00;;;;;;;2.17;2.05;;;19.20;48.90;;;;;;5043317;28;20192;-52
2021/05/04 09:44:55;;;;;;;2.67;2.03;;;19.50;49.10;;;;;;5046877;28;20419;-52
2021/05/04 09:47:25;;;;;;;3.55;2.03;;;19.40;49.00;;;;;;5037160;28;20722;-53
2021/05/04 09:49:55;;;;;;;2.28;2.10;;;19.90;47.30;;;;;;5048691;28;20186;-53
2021/05/04 09:52:41;;;;;;;2.00;1.90;;;19.70;47.00;;;;;;5041074;28;20197;-53
2021/05/04 09:55:13;;;;;;;2.10;1.90;;;19.30;47.30;;;;;;5046499;28;20217;-52
2021/05/04 09:57:44;;;;;;;2.50;2.20;;;19.30;48.00;;;;;;5045384;28;20500;-55
2021/05/04 10:00:30;;;;;;;2.70;2.00;;;19.40;48.40;;;;;;5049323;28;20238;-56
2021/05/04 10:02:59;;;;;;;2.35;2.25;;;19.60;48.80;;;;;;5046365;28;20312;-54
2021/05/04 10:05:25;;;;;;;3.08;1.95;;;20.10;48.00;;;;;;5048053;28;20184;-53
2021/05/04 10:07:51;;;;;;;2.50;2.30;;;20.10;47.00;;;;;;5049406;28;20541;-53
2021/05/04 10:10:17;;;;;;;2.30;2.10;;;20.10;47.10;;;;;;5048075;28;20432;-53
2021/05/04 10:12:46;;;;;;;2.00;1.90;;;20.10;46.60;;;;;;5046959;28;20734;-53
2021/05/04 10:15:13;;;;;;;2.10;2.00;;;20.30;46.70;;;;;;5047844;28;20488;-51
2021/05/04 10:17:40;;;;;;;3.08;2.00;;;20.60;45.90;;;;;;5045461;28;20178;-51
2021/05/04 10:20:10;;;;;;;2.10;1.85;;;20.30;46.40;;;;;;5044971;28;20181;-51
2021/05/04 10:22:37;;;;;;;2.55;2.15;;;20.30;45.80;;;;;;5042364;28;20862;-51
2021/05/04 10:25:05;;;;;;;2.50;2.30;;;19.80;45.40;;;;;;5045400;28;20221;-52
2021/05/04 10:27:32;;;;;;;2.08;1.88;;;19.70;45.80;;;;;;5047306;28;20211;-52
2021/05/04 10:30:00;;;;;;;2.42;1.83;;;19.60;45.80;;;;;;5047595;28;20184;-55
2021/05/04 10:33:12;;;;;;;2.97;2.10;;;19.60;46.50;;;;;;5047447;28;20217;-51
2021/05/04 10:35:48;;;;;;;4.20;1.98;;;19.40;46.90;;;;;;5033006;28;20212;-51
2021/05/04 10:38:16;;;;;;;2.50;2.22;;;19.60;46.80;;;;;;5044560;28;20200;-53
2021/05/04 10:40:47;;;;;;;2.35;2.15;;;19.50;47.00;;;;;;5042546;28;20380;-52
2021/05/04 10:43:22;;;;;;;2.10;2.00;;;19.50;47.00;;;;;;5040083;28;20726;-51
2021/05/04 10:45:53;;;;;;;2.35;2.10;;;19.30;46.70;;;;;;5047922;28;20199;-52
2021/05/04 10:48:37;;;;;;;6.22;2.42;;;19.30;46.70;;;;;;5044705;28;20292;-54
2021/05/04 10:51:07;;;;;;;2.85;2.30;;;19.40;47.30;;;;;;5040363;28;20188;-53
2021/05/04 10:53:52;;;;;;;4.20;2.40;;;19.80;47.60;;;;;;5044233;28;20201;-54
2021/05/04 10:56:30;;;;;;;2.45;2.20;;;20.20;47.10;;;;;;5044750;28;20193;-53
2021/05/04 10:58:56;;;;;;;4.15;2.80;;;20.30;46.10;;;;;;5044231;28;20228;-53
2021/05/04 11:01:22;;;;;;;8.27;3.33;;;20.10;45.50;;;;;;5039659;28;20210;-53
2021/05/04 11:03:49;;;;;;;2.30;2.10;;;20.00;45.80;;;;;;5045289;28;20790;-53
2021/05/04 11:06:24;;;;;;;2.33;2.05;;;20.00;46.00;;;;;;5043659;28;20233;-53
2021/05/04 11:08:50;;;;;;;2.30;2.15;;;20.10;46.10;;;;;;5044260;28;20193;-54
2021/05/04 11:11:36;;;;;;;3.10;2.10;;;20.30;45.50;;;;;;5044642;28;20228;-51
2021/05/04 11:14:05;;;;;;;2.35;2.10;;;20.00;45.60;;;;;;5046568;28;20204;-52
2021/05/04 11:16:35;;;;;;;3.85;2.20;;;19.60;45.80;;;;;;5046824;28;20542;-53
2021/05/04 11:19:10;;;;;;;4.40;2.83;;;19.30;46.60;;;;;;5060182;28;20196;-53
2021/05/04 11:21:40;;;;;;;2.85;2.05;;;19.10;47.30;;;;;;5047038;28;20183;-53
2021/05/04 11:24:07;;;;;;;3.17;2.30;;;19.10;47.10;;;;;;5046646;28;20209;-52
2021/05/04 11:26:55;;;;;;;3.55;2.30;;;19.10;47.00;;;;;;5040968;28;20173;-50
2021/05/04 11:29:22;;;;;;;6.85;2.30;;;19.20;47.50;;;;;;5043294;28;20180;-53
2021/05/04 11:31:50;;;;;;;2.40;2.00;;;19.20;47.70;;;;;;5043539;28;20695;-53
2021/05/04 11:34:35;;;;;;;2.67;2.08;;;19.80;47.70;;;;;;5046573;28;20213;-53
2021/05/04 11:37:00;;;;;;;2.50;2.30;;;19.90;47.40;;;;;;5045366;28;20280;-54
2021/05/04 11:39:27;;;;;;;2.80;1.97;;;19.90;47.30;;;;;;5039343;28;20349;-55
2021/05/04 11:42:00;;;;;;;3.67;2.20;;;19.80;47.60;;;;;;5045970;28;20186;-55
2021/05/04 11:44:34;;;;;;;2.10;1.90;;;19.60;47.80;;;;;;5046211;28;20774;-53
2021/05/04 11:47:22;;;;;;;3.67;2.50;;;19.80;47.80;;;;;;5040757;28;20243;-54
2021/05/04 11:49:49;;;;;;;3.05;2.30;;;19.90;47.60;;;;;;5057141;28;20571;-54
2021/05/04 11:52:18;;;;;;;2.47;2.28;;;19.70;48.10;;;;;;5044895;28;20224;-53
2021/05/04 11:54:45;;;;;;;2.33;2.03;;;19.80;48.50;;;;;;5045774;28;20245;-53
2021/05/04 11:57:12;;;;;;;2.30;2.10;;;19.60;48.80;;;;;;5043040;28;20241;-52
2021/05/04 11:59:38;;;;;;;2.40;2.20;;;19.50;49.30;;;;;;5042423;28;20181;-53
2021/05/04 12:02:03;;;;;;;3.30;2.78;;;19.60;49.30;;;;;;5047486;28;20182;-54
2021/05/04 12:04:50;;;;;;;2.40;2.20;;;19.60;49.10;;;;;;5045416;28;20445;-53
2021/05/04 12:07:35;;;;;;;5.22;3.03;;;19.50;49.20;;;;;;5046591;28;20802;-52
2021/05/04 12:10:01;;;;;;;3.30;2.60;;;19.40;49.70;;;;;;5046826;28;20181;-56
2021/05/04 12:12:44;;;;;;;2.50;2.13;;;19.30;50.40;;;;;;5051297;28;20208;-49
2021/05/04 12:15:13;;;;;;;2.95;2.28;;;19.20;50.50;;;;;;5050149;28;20190;-51
2021/05/04 12:17:39;;;;;;;2.38;2.15;;;19.00;51.20;;;;;;5047591;28;20303;-52
2021/05/04 12:20:11;;;;;;;2.00;1.88;;;18.90;51.80;;;;;;5049918;28;20686;-53
2021/05/04 12:22:43;;;;;;;2.55;2.15;;;18.70;52.30;;;;;;5047152;28;20266;-54
2021/05/04 12:25:10;;;;;;;2.53;2.33;;;18.60;53.10;;;;;;5036820;28;20244;-53
2021/05/04 12:27:35;;;;;;;2.55;2.22;;;18.30;53.70;;;;;;5048719;28;20614;-54
2021/05/04 12:30:01;;;;;;;2.50;2.30;;;18.30;54.60;;;;;;5047821;28;20180;-55
2021/05/04 12:32:27;;;;;;;2.63;2.42;;;18.20;55.30;;;;;;5046864;28;20474;-55
2021/05/04 12:34:58;;;;;;;2.93;2.50;;;18.30;55.80;;;;;;5048594;28;20181;-55
2021/05/04 12:37:29;;;;;;;2.92;2.30;;;18.40;57.10;;;;;;5049420;28;20188;-53
2021/05/04 12:40:12;;;;;;;4.25;2.40;;;18.50;57.60;;;;;;5049837;28;20193;-51
2021/05/04 12:42:38;;;;;;;2.03;1.93;;;18.50;58.30;;;;;;5049525;28;20211;-52
2021/05/04 12:45:09;;;;;;;2.40;2.27;;;18.70;58.30;;;;;;5050415;28;20189;-52
2021/05/04 12:47:34;;;;;;;2.40;2.20;;;18.70;58.20;;;;;;5049497;28;20181;-52
2021/05/04 12:50:00;;;;;;;2.00;1.90;;;18.40;57.80;;;;;;5052421;28;20181;-53
2021/05/04 12:52:35;;;;;;;3.70;2.40;;;18.30;58.90;;;;;;5048703;28;20428;-54
2021/05/04 12:55:07;;;;;;;4.43;3.03;;;18.10;59.20;;;;;;5044388;28;20481;-57
2021/05/04 12:57:33;;;;;;;3.05;2.60;;;17.70;59.00;;;;;;5048616;28;20425;-57
2021/05/04 13:00:15;;;;;;;4.33;2.50;;;17.50;60.60;;;;;;5049510;28;20606;-57
2021/05/04 13:02:41;;;;;;;2.92;2.47;;;17.80;61.10;;;;;;5049616;28;20235;-53
2021/05/04 13:05:24;;;;;;;2.30;2.20;;;17.90;60.50;;;;;;5054018;28;20212;-53